createdAt,value
2018-12-04T00:00:42.264Z,5.50
2018-12-04T00:01:42.269Z,5.50
2018-12-04T00:02:42.276Z,5.10
2018-12-04T00:03:42.274Z,5.00
2018-12-04T00:04:42.279Z,4.70
2018-12-04T00:05:42.290Z,6.00
2018-12-04T00:06:42.291Z,4.90
2018-12-04T00:07:42.301Z,4.70
2018-12-04T00:08:42.306Z,5.60
2018-12-04T00:09:42.306Z,5.20
2018-12-04T00:10:42.311Z,5.30
2018-12-04T00:11:42.323Z,5.30
2018-12-04T00:12:42.328Z,6.30
2018-12-04T00:13:42.336Z,5.50
2018-12-04T00:14:42.339Z,5.20
2018-12-04T00:15:42.329Z,5.60
2018-12-04T00:16:42.351Z,5.90
2018-12-04T00:17:42.350Z,4.50
2018-12-04T00:18:42.355Z,5.60
2018-12-04T00:19:42.363Z,5.80
2018-12-04T00:20:42.368Z,5.30
2018-12-04T00:21:42.366Z,5.90
2018-12-04T00:22:42.367Z,4.90
2018-12-04T00:23:42.375Z,5.20
2018-12-04T00:24:42.383Z,5.10
2018-12-04T00:25:42.390Z,5.00
2018-12-04T00:26:42.387Z,5.70
2018-12-04T00:27:42.395Z,4.80
2018-12-04T00:28:42.395Z,4.70
2018-12-04T00:29:42.405Z,4.50
2018-12-04T00:30:42.407Z,5.30
2018-12-04T00:31:42.418Z,5.80
2018-12-04T00:32:42.423Z,3.90
2018-12-04T00:33:42.421Z,5.70
2018-12-04T00:34:42.427Z,3.90
2018-12-04T00:35:42.426Z,4.70
2018-12-04T00:36:42.434Z,4.50
2018-12-04T00:37:42.433Z,4.80
2018-12-04T00:38:42.449Z,4.50
2018-12-04T00:39:42.451Z,4.80
2018-12-04T00:40:42.459Z,5.70
2018-12-04T00:41:42.462Z,4.90
2018-12-04T00:42:42.467Z,4.90
2018-12-04T00:43:42.458Z,4.20
2018-12-04T00:44:42.479Z,4.90
2018-12-04T00:45:42.483Z,4.90
2018-12-04T00:46:42.485Z,4.90
2018-12-04T00:47:42.480Z,4.20
2018-12-04T00:48:42.503Z,3.60
2018-12-04T00:49:42.503Z,3.80
2018-12-04T00:50:42.507Z,4.40
2018-12-04T00:51:43.328Z,4.20
2018-12-04T00:52:42.515Z,4.60
2018-12-04T00:53:42.667Z,4.30
2018-12-04T00:54:42.531Z,4.70
2018-12-04T00:55:42.530Z,3.80
2018-12-04T00:56:42.537Z,4.30
2018-12-04T00:57:42.549Z,3.50
2018-12-04T00:58:42.544Z,3.90
2018-12-04T00:59:42.547Z,4.30
2018-12-04T01:00:42.553Z,3.50
2018-12-04T01:01:42.563Z,5.60
2018-12-04T01:02:42.563Z,4.80
2018-12-04T01:03:42.636Z,4.30
2018-12-04T01:04:42.575Z,3.70
2018-12-04T01:05:42.586Z,3.90
2018-12-04T01:06:42.581Z,4.40
2018-12-04T01:07:42.591Z,3.20
2018-12-04T01:08:42.591Z,5.30
2018-12-04T01:09:42.655Z,3.60
2018-12-04T01:10:42.603Z,5.30
2018-12-04T01:11:42.614Z,4.20
2018-12-04T01:12:42.611Z,3.80
2018-12-04T01:13:42.609Z,3.50
2018-12-04T01:14:42.617Z,3.90
2018-12-04T01:15:42.639Z,4.30
2018-12-04T01:16:42.632Z,3.50
2018-12-04T01:17:42.648Z,4.50
2018-12-04T01:18:42.639Z,4.70
2018-12-04T01:19:42.640Z,3.10
2018-12-04T01:20:42.652Z,4.10
2018-12-04T01:21:42.651Z,4.00
2018-12-04T01:22:42.660Z,3.60
2018-12-04T01:23:42.678Z,3.70
2018-12-04T01:24:42.666Z,4.30
2018-12-04T01:25:42.682Z,3.60
2018-12-04T01:26:42.674Z,3.20
2018-12-04T01:27:42.679Z,3.50
2018-12-04T01:28:42.683Z,3.70
2018-12-04T01:29:42.688Z,3.20
2018-12-04T01:30:42.700Z,3.60
2018-12-04T01:31:42.705Z,4.10
2018-12-04T01:32:42.706Z,4.20
2018-12-04T01:33:42.715Z,3.60
2018-12-04T01:34:42.722Z,4.10
2018-12-04T01:35:42.729Z,3.80
2018-12-04T01:36:42.725Z,2.70
2018-12-04T01:37:42.725Z,3.30
2018-12-04T01:38:42.739Z,3.90
2018-12-04T01:39:42.738Z,3.60
2018-12-04T01:40:42.743Z,3.20
2018-12-04T01:41:42.746Z,4.20
2018-12-04T01:42:42.755Z,3.40
2018-12-04T01:43:42.753Z,4.00
2018-12-04T01:44:42.759Z,3.30
2018-12-04T01:45:42.762Z,3.30
2018-12-04T01:46:42.773Z,3.40
2018-12-04T01:47:42.783Z,2.80
2018-12-04T01:48:42.787Z,3.80
2018-12-04T01:49:42.780Z,3.10
2018-12-04T01:50:42.795Z,3.30
2018-12-04T01:51:42.794Z,3.50
2018-12-04T01:52:42.799Z,3.40
2018-12-04T01:53:42.803Z,3.80
2018-12-04T01:54:42.812Z,3.20
2018-12-04T01:55:42.811Z,3.10
2018-12-04T01:56:42.815Z,2.80
2018-12-04T01:57:42.821Z,3.50
2018-12-04T01:58:42.827Z,3.30
2018-12-04T01:59:42.868Z,3.20
2018-12-04T02:00:42.837Z,3.70
2018-12-04T02:01:42.839Z,3.30
2018-12-04T02:02:42.845Z,3.00
2018-12-04T02:03:42.847Z,3.60
2018-12-04T02:04:42.853Z,3.60
2018-12-04T02:05:42.859Z,3.50
2018-12-04T02:06:42.865Z,3.40
2018-12-04T02:07:42.868Z,3.30
2018-12-04T02:08:42.875Z,3.20
2018-12-04T02:09:42.879Z,3.30
2018-12-04T02:10:42.885Z,3.10
2018-12-04T02:11:42.887Z,3.20
2018-12-04T02:12:42.892Z,3.00
2018-12-04T02:13:42.895Z,3.10
2018-12-04T02:14:42.901Z,2.90
2018-12-04T02:15:42.905Z,2.90
2018-12-04T02:16:42.909Z,2.70
2018-12-04T02:17:42.919Z,2.90
2018-12-04T02:18:42.913Z,2.60
2018-12-04T02:19:42.923Z,3.00
2018-12-04T02:20:42.933Z,2.80
2018-12-04T02:21:42.940Z,2.60
2018-12-04T02:22:42.939Z,2.70
2018-12-04T02:23:42.943Z,3.00
2018-12-04T02:24:42.959Z,2.70
2018-12-04T02:25:42.953Z,3.10
2018-12-04T02:26:42.963Z,3.20
2018-12-04T02:27:42.960Z,3.30
2018-12-04T02:28:42.971Z,2.90
2018-12-04T02:29:42.969Z,2.70
2018-12-04T02:30:42.980Z,3.20
2018-12-04T02:31:42.982Z,3.10
2018-12-04T02:32:42.988Z,2.60
2018-12-04T02:33:42.996Z,2.60
2018-12-04T02:34:43.001Z,3.00
2018-12-04T02:35:42.996Z,3.60
2018-12-04T02:36:43.000Z,3.00
2018-12-04T02:37:43.018Z,2.80
2018-12-04T02:38:43.029Z,2.60
2018-12-04T02:39:43.021Z,3.20
2018-12-04T02:40:43.028Z,3.00
2018-12-04T02:41:43.030Z,2.40
2018-12-04T02:42:43.045Z,2.30
2018-12-04T02:43:43.038Z,2.90
2018-12-04T02:44:43.047Z,2.60
2018-12-04T02:45:43.047Z,2.80
2018-12-04T02:46:43.051Z,2.60
2018-12-04T02:47:43.055Z,2.60
2018-12-04T02:48:43.069Z,2.40
2018-12-04T02:49:43.071Z,2.50
2018-12-04T02:50:43.069Z,2.90
2018-12-04T02:51:43.073Z,2.30
2018-12-04T02:52:43.075Z,2.10
2018-12-04T02:53:43.083Z,2.80
2018-12-04T02:54:43.090Z,3.00
2018-12-04T02:55:43.091Z,2.40
2018-12-04T02:56:43.099Z,2.60
2018-12-04T02:57:43.101Z,2.90
2018-12-04T02:58:43.107Z,2.10
2018-12-04T02:59:43.114Z,3.40
2018-12-04T03:00:43.118Z,1.80
2018-12-04T03:01:43.121Z,2.10
2018-12-04T03:02:43.132Z,2.40
2018-12-04T03:03:43.131Z,2.10
2018-12-04T03:04:43.132Z,2.40
2018-12-04T03:05:43.140Z,2.30
2018-12-04T03:06:43.141Z,2.30
2018-12-04T03:07:43.151Z,2.70
2018-12-04T03:08:43.152Z,2.80
2018-12-04T03:09:43.162Z,2.20
2018-12-04T03:10:43.171Z,2.30
2018-12-04T03:11:43.167Z,2.40
2018-12-04T03:12:43.171Z,2.20
2018-12-04T03:13:43.177Z,2.50
2018-12-04T03:14:43.180Z,2.60
2018-12-04T03:15:43.186Z,2.60
2018-12-04T03:16:43.196Z,2.80
2018-12-04T03:17:43.196Z,2.80
2018-12-04T03:18:43.198Z,2.20
2018-12-04T03:19:43.232Z,2.80
2018-12-04T03:20:43.224Z,2.10
2018-12-04T03:21:43.218Z,2.20
2018-12-04T03:22:43.220Z,2.50
2018-12-04T03:23:43.224Z,2.20
2018-12-04T03:24:43.232Z,2.00
2018-12-04T03:25:43.237Z,2.70
2018-12-04T03:26:43.239Z,2.30
2018-12-04T03:27:43.237Z,2.60
2018-12-04T03:28:43.246Z,1.90
2018-12-04T03:29:43.253Z,2.30
2018-12-04T03:30:43.257Z,2.00
2018-12-04T03:31:43.281Z,2.00
2018-12-04T03:32:43.269Z,2.30
2018-12-04T03:33:43.290Z,2.40
2018-12-04T03:34:43.277Z,2.10
2018-12-04T03:35:43.285Z,2.20
2018-12-04T03:36:43.282Z,2.10
2018-12-04T03:37:43.292Z,2.50
2018-12-04T03:38:43.302Z,2.40
2018-12-04T03:39:43.301Z,2.10
2018-12-04T03:40:43.306Z,2.30
2018-12-04T03:41:43.319Z,2.00
2018-12-04T03:42:43.313Z,2.00
2018-12-04T03:43:43.322Z,1.90
2018-12-04T03:44:43.328Z,2.10
2018-12-04T03:45:43.322Z,1.90
2018-12-04T03:46:43.331Z,1.70
2018-12-04T03:47:43.340Z,2.10
2018-12-04T03:48:43.330Z,2.20
2018-12-04T03:49:43.352Z,2.10
2018-12-04T03:50:43.351Z,2.50
2018-12-04T03:51:43.356Z,2.50
2018-12-04T03:52:43.362Z,2.70
2018-12-04T03:53:43.369Z,2.80
2018-12-04T03:54:43.369Z,2.20
2018-12-04T03:55:43.409Z,2.20
2018-12-04T03:56:43.375Z,2.60
2018-12-04T03:57:43.395Z,2.10
2018-12-04T03:58:43.401Z,2.50
2018-12-04T03:59:43.395Z,2.00
2018-12-04T04:00:43.401Z,1.80
2018-12-04T04:01:43.408Z,2.20
2018-12-04T04:02:43.437Z,1.90
2018-12-04T04:03:43.418Z,2.20
2018-12-04T04:04:43.433Z,1.80
2018-12-04T04:05:43.425Z,2.00
2018-12-04T04:06:43.443Z,1.80
2018-12-04T04:07:43.433Z,1.70
2018-12-04T04:08:43.435Z,1.90
2018-12-04T04:09:43.449Z,2.20
2018-12-04T04:10:43.450Z,2.90
2018-12-04T04:11:43.455Z,2.30
2018-12-04T04:12:43.452Z,2.00
2018-12-04T04:13:43.461Z,2.00
2018-12-04T04:14:43.469Z,1.80
2018-12-04T04:15:43.486Z,1.70
2018-12-04T04:16:43.473Z,2.40
2018-12-04T04:17:43.484Z,2.00
2018-12-04T04:18:43.488Z,2.00
2018-12-04T04:19:43.512Z,1.90
2018-12-04T04:20:43.489Z,2.00
2018-12-04T04:21:43.501Z,1.80
2018-12-04T04:22:43.499Z,1.90
2018-12-04T04:23:43.502Z,2.10
2018-12-04T04:24:43.509Z,1.60
2018-12-04T04:25:43.520Z,2.10
2018-12-04T04:26:43.517Z,1.80
2018-12-04T04:27:43.532Z,2.20
2018-12-04T04:28:43.529Z,2.10
2018-12-04T04:29:43.541Z,1.90
2018-12-04T04:30:43.541Z,1.60
2018-12-04T04:31:43.595Z,2.00
2018-12-04T04:32:43.546Z,1.80
2018-12-04T04:33:43.554Z,2.10
2018-12-04T04:34:43.555Z,2.00
2018-12-04T04:35:43.563Z,1.90
2018-12-04T04:36:43.568Z,1.90
2018-12-04T04:37:43.597Z,1.90
2018-12-04T04:38:43.586Z,1.60
2018-12-04T04:39:43.584Z,1.50
2018-12-04T04:40:43.598Z,1.90
2018-12-04T04:41:43.595Z,1.60
2018-12-04T04:42:43.595Z,1.80
2018-12-04T04:43:43.606Z,2.20
2018-12-04T04:44:43.605Z,1.70
2018-12-04T04:45:43.619Z,1.70
2018-12-04T04:46:43.614Z,2.00
2018-12-04T04:47:43.609Z,2.00
2018-12-04T04:48:43.628Z,1.70
2018-12-04T04:49:43.627Z,1.60
2018-12-04T04:50:43.631Z,1.80
2018-12-04T04:51:43.637Z,1.60
2018-12-04T04:52:43.648Z,1.60
2018-12-04T04:53:43.649Z,1.40
2018-12-04T04:54:43.656Z,1.90
2018-12-04T04:55:43.658Z,1.90
2018-12-04T04:56:43.661Z,1.80
2018-12-04T04:57:43.666Z,2.00
2018-12-04T04:58:43.670Z,2.00
2018-12-04T04:59:43.679Z,1.80
2018-12-04T05:00:43.679Z,1.90
2018-12-04T05:01:43.692Z,1.60
2018-12-04T05:02:43.691Z,1.70
2018-12-04T05:03:43.693Z,2.00
2018-12-04T05:04:43.705Z,2.20
2018-12-04T05:05:43.699Z,2.20
2018-12-04T05:06:43.714Z,2.00
2018-12-04T05:07:43.720Z,1.60
2018-12-04T05:08:43.718Z,1.70
2018-12-04T05:09:43.712Z,1.80
2018-12-04T05:10:43.731Z,1.70
2018-12-04T05:11:43.728Z,2.20
2018-12-04T05:12:43.760Z,2.10
2018-12-04T05:13:43.736Z,1.70
2018-12-04T05:14:43.742Z,1.90
2018-12-04T05:15:43.749Z,1.80
2018-12-04T05:16:43.765Z,2.20
2018-12-04T05:17:43.770Z,1.50
2018-12-04T05:18:43.765Z,2.00
2018-12-04T05:19:43.765Z,1.70
2018-12-04T05:20:43.772Z,2.00
2018-12-04T05:21:43.777Z,1.40
2018-12-04T05:22:43.783Z,1.40
2018-12-04T05:23:43.784Z,1.70
2018-12-04T05:24:43.791Z,1.80
2018-12-04T05:25:43.793Z,2.00
2018-12-04T05:26:43.803Z,1.50
2018-12-04T05:27:43.818Z,1.70
2018-12-04T05:28:43.809Z,1.60
2018-12-04T05:29:43.813Z,1.60
2018-12-04T05:30:43.820Z,1.90
2018-12-04T05:31:43.826Z,1.70
2018-12-04T05:32:43.830Z,1.50
2018-12-04T05:33:43.840Z,1.50
2018-12-04T05:34:43.835Z,1.80
2018-12-04T05:35:43.830Z,2.10
2018-12-04T05:36:43.846Z,1.60
2018-12-04T05:37:43.850Z,1.50
2018-12-04T05:38:43.855Z,1.70
2018-12-04T05:39:43.864Z,2.10
2018-12-04T05:40:43.870Z,1.60
2018-12-04T05:41:43.870Z,1.70
2018-12-04T05:42:43.869Z,1.50
2018-12-04T05:43:43.885Z,1.70
2018-12-04T05:44:43.879Z,1.30
2018-12-04T05:45:43.890Z,1.70
2018-12-04T05:46:43.893Z,1.50
2018-12-04T05:47:43.895Z,1.90
2018-12-04T05:48:43.897Z,1.70
2018-12-04T05:49:43.906Z,2.00
2018-12-04T05:50:43.910Z,1.40
2018-12-04T05:51:43.919Z,1.60
2018-12-04T05:52:43.921Z,1.30
2018-12-04T05:53:43.928Z,1.60
2018-12-04T05:54:43.927Z,1.40
2018-12-04T05:55:43.933Z,1.80
2018-12-04T05:56:43.936Z,2.10
2018-12-04T05:57:43.942Z,2.00
2018-12-04T05:58:43.959Z,1.70
2018-12-04T05:59:43.950Z,1.50
2018-12-04T06:00:43.955Z,1.60
2018-12-04T06:01:43.955Z,1.60
2018-12-04T06:02:43.961Z,1.50
2018-12-04T06:03:43.974Z,1.80
2018-12-04T06:04:43.971Z,1.30
2018-12-04T06:05:43.979Z,1.30
2018-12-04T06:06:43.984Z,1.60
2018-12-04T06:07:43.988Z,1.50
2018-12-04T06:08:43.996Z,1.60
2018-12-04T06:09:43.996Z,1.50
2018-12-04T06:10:44.001Z,1.70
2018-12-04T06:11:44.007Z,1.40
2018-12-04T06:12:44.022Z,1.40
2018-12-04T06:13:44.014Z,1.40
2018-12-04T06:14:44.019Z,1.40
2018-12-04T06:15:44.020Z,1.70
2018-12-04T06:16:44.027Z,1.70
2018-12-04T06:17:44.037Z,1.40
2018-12-04T06:18:44.037Z,1.50
2018-12-04T06:19:44.041Z,1.30
2018-12-04T06:20:44.058Z,1.40
2018-12-04T06:21:44.052Z,1.60
2018-12-04T06:22:44.057Z,1.70
2018-12-04T06:23:44.064Z,1.60
2018-12-04T06:24:44.065Z,1.80
2018-12-04T06:25:44.065Z,1.30
2018-12-04T06:26:44.074Z,1.40
2018-12-04T06:27:44.077Z,1.60
2018-12-04T06:28:44.088Z,1.40
2018-12-04T06:29:44.083Z,1.50
2018-12-04T06:30:44.097Z,1.30
2018-12-04T06:31:44.095Z,1.60
2018-12-04T06:32:44.103Z,1.60
2018-12-04T06:33:44.099Z,1.60
2018-12-04T06:34:44.111Z,1.30
2018-12-04T06:35:44.115Z,1.50
2018-12-04T06:36:44.122Z,1.20
2018-12-04T06:37:44.125Z,1.60
2018-12-04T06:38:44.133Z,2.20
2018-12-04T06:39:44.141Z,1.60
2018-12-04T06:40:44.141Z,1.90
2018-12-04T06:41:44.144Z,2.10
2018-12-04T06:42:44.141Z,2.10
2018-12-04T06:43:44.161Z,1.80
2018-12-04T06:44:46.726Z,2.60
2018-12-04T06:45:44.161Z,1.60
2018-12-04T06:46:44.164Z,3.30
2018-12-04T06:47:44.175Z,1.80
2018-12-04T06:48:44.168Z,1.60
2018-12-04T06:49:44.189Z,1.30
2018-12-04T06:50:44.185Z,1.80
2018-12-04T06:51:44.193Z,1.70
2018-12-04T06:52:44.188Z,1.80
2018-12-04T06:53:44.197Z,2.10
2018-12-04T06:54:44.199Z,2.10
2018-12-04T06:55:44.207Z,2.40
2018-12-04T06:56:44.212Z,5.40
2018-12-04T06:57:44.217Z,4.80
2018-12-04T06:58:44.215Z,5.90
2018-12-04T06:59:44.230Z,6.90
2018-12-04T07:00:44.225Z,5.70
2018-12-04T07:01:44.233Z,7.20
2018-12-04T07:02:44.241Z,12.40
2018-12-04T07:03:44.253Z,12.80
2018-12-04T07:04:44.249Z,12.40
2018-12-04T07:05:44.251Z,7.20
2018-12-04T07:06:44.261Z,5.50
2018-12-04T07:07:44.277Z,8.20
2018-12-04T07:08:44.692Z,6.30
2018-12-04T07:09:44.270Z,6.90
2018-12-04T07:10:44.276Z,9.30
2018-12-04T07:11:44.274Z,12.00
2018-12-04T07:12:44.278Z,10.80
2018-12-04T07:13:44.275Z,9.50
2018-12-04T07:14:44.294Z,8.30
2018-12-04T07:15:44.300Z,6.00
2018-12-04T07:16:44.293Z,9.30
2018-12-04T07:17:44.306Z,8.00
2018-12-04T07:18:44.304Z,8.30
2018-12-04T07:19:44.316Z,7.80
2018-12-04T07:20:44.421Z,7.50
2018-12-04T07:21:44.329Z,9.00
2018-12-04T07:22:44.342Z,7.70
2018-12-04T07:23:44.328Z,6.30
2018-12-04T07:24:44.361Z,6.30
2018-12-04T07:25:44.352Z,8.60
2018-12-04T07:26:44.384Z,6.20
2018-12-04T07:27:44.346Z,6.10
2018-12-04T07:28:44.362Z,8.50
2018-12-04T07:29:44.365Z,11.20
2018-12-04T07:30:44.507Z,7.80
2018-12-04T07:31:44.365Z,7.90
2018-12-04T07:32:44.364Z,7.70
2018-12-04T07:33:44.375Z,7.30
2018-12-04T07:34:44.972Z,6.70
2018-12-04T07:35:44.384Z,6.60
2018-12-04T07:36:44.424Z,7.10
2018-12-04T07:37:44.388Z,8.60
2018-12-04T07:38:44.457Z,6.50
2018-12-04T07:39:44.403Z,7.70
2018-12-04T07:40:44.409Z,5.90
2018-12-04T07:41:44.406Z,6.50
2018-12-04T07:42:44.418Z,7.90
2018-12-04T07:43:44.422Z,10.80
2018-12-04T07:44:44.436Z,8.90
2018-12-04T07:45:44.432Z,10.00
2018-12-04T07:46:44.438Z,11.40
2018-12-04T07:47:44.436Z,10.60
2018-12-04T07:48:44.980Z,10.40
2018-12-04T07:49:44.444Z,12.90
2018-12-04T07:50:44.462Z,8.20
2018-12-04T07:51:44.461Z,11.70
2018-12-04T07:52:44.476Z,11.30
2018-12-04T07:53:44.472Z,11.80
2018-12-04T07:54:44.479Z,12.40
2018-12-04T07:55:44.502Z,10.70
2018-12-04T07:56:44.491Z,11.60
2018-12-04T07:57:44.492Z,12.70
2018-12-04T07:58:44.517Z,9.50
2018-12-04T07:59:44.505Z,10.30
2018-12-04T08:00:44.586Z,10.90
2018-12-04T08:01:44.502Z,11.50
2018-12-04T08:02:44.522Z,10.80
2018-12-04T08:03:44.509Z,10.40
2018-12-04T08:04:44.518Z,9.50
2018-12-04T08:05:44.524Z,9.60
2018-12-04T08:06:44.524Z,9.00
2018-12-04T08:07:44.538Z,9.00
2018-12-04T08:08:44.554Z,10.60
2018-12-04T08:09:44.545Z,8.30
2018-12-04T08:10:44.554Z,10.40
2018-12-04T08:11:44.561Z,10.50
2018-12-04T08:12:44.557Z,8.40
2018-12-04T08:13:44.569Z,8.90
2018-12-04T08:14:44.578Z,9.30
2018-12-04T08:15:44.573Z,10.50
2018-12-04T08:16:44.583Z,8.80
2018-12-04T08:17:44.587Z,9.30
2018-12-04T08:18:44.598Z,9.60
2018-12-04T08:19:44.612Z,9.00
2018-12-04T08:20:44.603Z,10.10
2018-12-04T08:21:44.605Z,8.30
2018-12-04T08:22:44.602Z,9.20
2018-12-04T08:23:44.611Z,9.70
2018-12-04T08:24:44.619Z,7.60
2018-12-04T08:25:44.627Z,8.00
2018-12-04T08:26:44.620Z,8.40
2018-12-04T08:27:44.630Z,8.80
2018-12-04T08:28:44.642Z,9.70
2018-12-04T08:29:44.638Z,8.30
2018-12-04T08:30:44.642Z,9.20
2018-12-04T08:31:44.643Z,9.80
2018-12-04T08:32:44.649Z,8.60
2018-12-04T08:33:44.661Z,8.30
2018-12-04T08:34:44.658Z,8.80
2018-12-04T08:35:44.678Z,7.60
2018-12-04T08:36:44.674Z,9.00
2018-12-04T08:37:44.684Z,6.70
2018-12-04T08:38:44.687Z,9.00
2018-12-04T08:39:44.694Z,6.80
2018-12-04T08:40:44.703Z,6.90
2018-12-04T08:41:44.696Z,7.70
2018-12-04T08:42:44.716Z,8.40
2018-12-04T08:43:44.710Z,8.00
2018-12-04T08:44:44.708Z,6.70
2018-12-04T08:45:44.718Z,6.70
2018-12-04T08:46:44.722Z,6.10
2018-12-04T08:47:44.728Z,7.90
2018-12-04T08:48:44.730Z,7.10
2018-12-04T08:49:44.734Z,8.00
2018-12-04T08:50:44.739Z,7.10
2018-12-04T08:51:44.746Z,8.40
2018-12-04T08:52:44.750Z,9.80
2018-12-04T08:53:44.756Z,7.10
2018-12-04T08:54:44.765Z,7.00
2018-12-04T08:55:44.761Z,7.80
2018-12-04T08:56:44.772Z,7.10
2018-12-04T08:57:44.772Z,6.50
2018-12-04T08:58:44.782Z,8.70
2018-12-04T08:59:44.783Z,5.90
2018-12-04T09:00:44.791Z,7.10
2018-12-04T09:01:44.797Z,6.40
2018-12-04T09:02:44.799Z,6.60
2018-12-04T09:03:44.806Z,8.60
2018-12-04T09:04:44.809Z,9.60
2018-12-04T09:05:44.813Z,11.70
2018-12-04T09:06:44.836Z,11.00
2018-12-04T09:07:44.823Z,10.30
2018-12-04T09:08:44.845Z,8.90
2018-12-04T09:09:44.830Z,9.60
2018-12-04T09:10:44.851Z,9.90
2018-12-04T09:11:44.863Z,9.80
2018-12-04T09:12:44.845Z,10.80
2018-12-04T09:13:44.856Z,11.20
2018-12-04T09:14:44.867Z,9.20
2018-12-04T09:15:44.857Z,8.10
2018-12-04T09:16:44.860Z,8.90
2018-12-04T09:17:44.875Z,8.40
2018-12-04T09:18:44.941Z,9.70
2018-12-04T09:19:44.933Z,7.00
2018-12-04T09:20:44.903Z,8.50
2018-12-04T09:21:44.915Z,7.70
2018-12-04T09:22:44.899Z,9.00
2018-12-04T09:23:44.917Z,9.10
2018-12-04T09:24:44.913Z,8.40
2018-12-04T09:25:44.917Z,9.00
2018-12-04T09:26:44.930Z,8.30
2018-12-04T09:27:44.920Z,7.80
2018-12-04T09:28:44.950Z,7.80
2018-12-04T09:29:45.534Z,8.20
2018-12-04T09:30:44.941Z,7.20
2018-12-04T09:31:44.931Z,7.80
2018-12-04T09:32:44.947Z,7.10
2018-12-04T09:33:45.001Z,7.30
2018-12-04T09:34:44.952Z,6.40
2018-12-04T09:35:44.954Z,5.70
2018-12-04T09:36:44.964Z,7.40
2018-12-04T09:37:45.003Z,6.40
2018-12-04T09:38:44.969Z,7.00
2018-12-04T09:39:44.997Z,7.30
2018-12-04T09:40:44.980Z,7.00
2018-12-04T09:41:44.986Z,7.20
2018-12-04T09:42:44.992Z,6.40
2018-12-04T09:43:45.006Z,6.50
2018-12-04T09:44:45.004Z,6.00
2018-12-04T09:45:45.017Z,6.50
2018-12-04T09:46:45.008Z,7.50
2018-12-04T09:47:45.017Z,7.50
2018-12-04T09:48:45.020Z,6.60
2018-12-04T09:49:45.033Z,8.10
2018-12-04T09:50:45.032Z,7.30
2018-12-04T09:51:45.040Z,5.50
2018-12-04T09:52:45.037Z,6.30
2018-12-04T09:53:45.060Z,6.90
2018-12-04T09:54:45.047Z,7.50
2018-12-04T09:55:45.098Z,6.00
2018-12-04T09:56:45.052Z,7.70
2018-12-04T09:57:45.060Z,5.10
2018-12-04T09:58:45.068Z,5.90
2018-12-04T09:59:45.094Z,6.70
2018-12-04T10:00:45.079Z,5.20
2018-12-04T10:01:46.042Z,6.70
2018-12-04T10:02:45.086Z,5.90
2018-12-04T10:03:45.098Z,6.50
2018-12-04T10:04:45.093Z,7.10
2018-12-04T10:05:45.187Z,5.80
2018-12-04T10:06:45.102Z,5.60
2018-12-04T10:07:45.120Z,4.40
2018-12-04T10:08:45.115Z,5.50
2018-12-04T10:09:45.128Z,6.50
2018-12-04T10:10:45.120Z,5.40
2018-12-04T10:11:45.203Z,5.80
2018-12-04T10:12:45.151Z,8.10
2018-12-04T10:13:45.186Z,5.60
2018-12-04T10:14:45.139Z,5.10
2018-12-04T10:15:45.154Z,5.60
2018-12-04T10:16:45.152Z,6.40
2018-12-04T10:17:45.158Z,5.70
2018-12-04T10:18:47.697Z,6.60
2018-12-04T10:19:45.168Z,5.00
2018-12-04T10:20:45.174Z,6.20
2018-12-04T10:21:45.199Z,7.50
2018-12-04T10:22:45.175Z,6.10
2018-12-04T10:23:45.190Z,6.10
2018-12-04T10:24:45.199Z,5.30
2018-12-04T10:25:45.194Z,5.40
2018-12-04T10:26:45.199Z,4.50
2018-12-04T10:27:45.217Z,4.50
2018-12-04T10:28:45.204Z,6.10
2018-12-04T10:29:45.222Z,5.00
2018-12-04T10:30:45.224Z,5.30
2018-12-04T10:31:45.243Z,5.90
2018-12-04T10:32:45.225Z,4.80
2018-12-04T10:33:45.231Z,5.60
2018-12-04T10:34:45.234Z,5.40
2018-12-04T10:35:45.237Z,5.00
2018-12-04T10:36:45.241Z,5.00
2018-12-04T10:37:45.248Z,6.60
2018-12-04T10:38:45.254Z,7.10
2018-12-04T10:39:45.253Z,6.00
2018-12-04T10:40:45.263Z,5.90
2018-12-04T10:41:45.275Z,5.10
2018-12-04T10:42:45.275Z,6.40
2018-12-04T10:43:45.274Z,4.70
2018-12-04T10:44:45.281Z,5.60
2018-12-04T10:45:45.285Z,5.90
2018-12-04T10:46:45.299Z,4.00
2018-12-04T10:47:45.300Z,4.80
2018-12-04T10:48:45.302Z,5.10
2018-12-04T10:49:45.306Z,6.60
2018-12-04T10:50:45.316Z,5.10
2018-12-04T10:51:45.310Z,4.60
2018-12-04T10:52:45.317Z,5.20
2018-12-04T10:53:45.318Z,5.10
2018-12-04T10:54:45.325Z,5.40
2018-12-04T10:55:45.332Z,4.60
2018-12-04T10:56:45.339Z,4.80
2018-12-04T10:57:45.341Z,4.50
2018-12-04T10:58:45.357Z,5.60
2018-12-04T10:59:45.368Z,4.80
2018-12-04T11:00:45.353Z,5.10
2018-12-04T11:01:45.363Z,5.50
2018-12-04T11:02:45.368Z,4.80
2018-12-04T11:03:45.378Z,5.50
2018-12-04T11:04:45.377Z,4.20
2018-12-04T11:05:45.377Z,4.30
2018-12-04T11:06:45.423Z,4.50
2018-12-04T11:07:45.385Z,5.40
2018-12-04T11:08:45.396Z,4.40
2018-12-04T11:09:45.502Z,4.50
2018-12-04T11:10:45.405Z,4.30
2018-12-04T11:11:45.407Z,4.40
2018-12-04T11:12:45.419Z,8.30
2018-12-04T11:13:45.415Z,5.90
2018-12-04T11:14:45.422Z,6.40
2018-12-04T11:15:45.423Z,5.70
2018-12-04T11:16:45.437Z,6.00
2018-12-04T11:17:45.435Z,5.20
2018-12-04T11:18:45.443Z,4.20
2018-12-04T11:19:45.449Z,4.70
2018-12-04T11:20:45.446Z,4.20
2018-12-04T11:21:45.453Z,5.50
2018-12-04T11:22:45.461Z,5.50
2018-12-04T11:23:45.464Z,6.10
2018-12-04T11:24:45.463Z,4.20
2018-12-04T11:25:45.475Z,5.60
2018-12-04T11:26:45.479Z,5.40
2018-12-04T11:27:45.489Z,5.20
2018-12-04T11:28:45.485Z,5.60
2018-12-04T11:29:45.498Z,5.10
2018-12-04T11:30:45.507Z,4.80
2018-12-04T11:31:45.503Z,5.70
2018-12-04T11:32:45.501Z,4.50
2018-12-04T11:33:45.511Z,5.50
2018-12-04T11:34:45.516Z,4.00
2018-12-04T11:35:45.519Z,4.50
2018-12-04T11:36:45.524Z,5.20
2018-12-04T11:37:45.530Z,7.50
2018-12-04T11:38:45.538Z,4.50
2018-12-04T11:39:45.533Z,5.70
2018-12-04T11:40:45.551Z,5.50
2018-12-04T11:41:45.547Z,5.40
2018-12-04T11:42:45.558Z,5.30
2018-12-04T11:43:45.563Z,5.40
2018-12-04T11:44:45.565Z,4.50
2018-12-04T11:45:45.573Z,5.50
2018-12-04T11:46:45.571Z,6.50
2018-12-04T11:47:45.596Z,5.60
2018-12-04T11:48:45.583Z,6.00
2018-12-04T11:49:45.588Z,4.60
2018-12-04T11:50:45.594Z,4.70
2018-12-04T11:51:45.595Z,4.90
2018-12-04T11:52:45.606Z,5.00
2018-12-04T11:53:45.605Z,5.10
2018-12-04T11:54:45.617Z,6.60
2018-12-04T11:55:45.622Z,6.00
2018-12-04T11:56:45.652Z,5.50
2018-12-04T11:57:45.631Z,5.40
2018-12-04T11:58:45.638Z,5.40
2018-12-04T11:59:45.634Z,5.50
2018-12-04T12:00:45.636Z,5.80
2018-12-04T12:01:45.654Z,7.00
2018-12-04T12:02:45.654Z,4.50
2018-12-04T12:03:45.658Z,5.30
2018-12-04T12:04:45.667Z,5.60
2018-12-04T12:05:45.670Z,6.20
2018-12-04T12:06:45.672Z,5.70
2018-12-04T12:07:45.676Z,5.60
2018-12-04T12:08:45.681Z,7.70
2018-12-04T12:09:45.698Z,6.40
2018-12-04T12:10:45.698Z,8.60
2018-12-04T12:11:45.702Z,6.50
2018-12-04T12:12:45.705Z,6.80
2018-12-04T12:13:45.716Z,5.80
2018-12-04T12:14:45.716Z,7.50
2018-12-04T12:15:45.719Z,7.10
2018-12-04T12:16:45.725Z,9.50
2018-12-04T12:17:45.731Z,6.70
2018-12-04T12:18:45.739Z,7.50
2018-12-04T12:19:45.728Z,6.80
2018-12-04T12:20:45.748Z,8.00
2018-12-04T12:21:45.767Z,8.40
2018-12-04T12:22:45.752Z,13.20
2018-12-04T12:23:45.769Z,9.60
2018-12-04T12:24:45.766Z,10.40
2018-12-04T12:25:45.777Z,13.20
2018-12-04T12:26:45.777Z,11.50
2018-12-04T12:27:45.782Z,11.00
2018-12-04T12:28:45.786Z,9.20
2018-12-04T12:29:45.786Z,10.30
2018-12-04T12:30:45.794Z,11.40
2018-12-04T12:31:45.802Z,9.30
2018-12-04T12:32:45.808Z,12.40
2018-12-04T12:33:45.818Z,12.30
2018-12-04T12:34:45.818Z,11.50
2018-12-04T12:35:45.824Z,12.60
2018-12-04T12:36:45.828Z,12.50
2018-12-04T12:37:45.834Z,11.20
2018-12-04T12:38:45.854Z,9.80
2018-12-04T12:40:00.661Z,14.10
2018-12-04T12:41:12.117Z,9.60
2018-12-04T12:41:47.604Z,11.60
2018-12-04T12:42:53.585Z,23.80
2018-12-04T12:43:45.866Z,18.60
2018-12-04T12:44:45.876Z,15.40
2018-12-04T12:45:45.881Z,17.00
2018-12-04T12:46:45.880Z,14.70
2018-12-04T12:47:45.886Z,13.60
2018-12-04T12:48:45.892Z,10.90
2018-12-04T12:49:45.898Z,13.40
2018-12-04T12:50:45.900Z,9.70
2018-12-04T12:51:45.912Z,10.50
2018-12-04T12:52:45.911Z,9.90
2018-12-04T12:53:45.915Z,10.30
2018-12-04T12:54:45.922Z,9.20
2018-12-04T12:55:45.935Z,8.50
2018-12-04T12:56:45.928Z,11.70
2018-12-04T12:57:45.939Z,9.60
2018-12-04T12:58:45.937Z,9.20
2018-12-04T12:59:45.955Z,11.00
2018-12-04T13:00:45.954Z,9.40
2018-12-04T13:01:45.961Z,7.50
2018-12-04T13:02:45.968Z,9.00
2018-12-04T13:03:45.966Z,9.10
2018-12-04T13:04:45.972Z,6.70
2018-12-04T13:05:45.995Z,9.10
2018-12-04T13:06:45.988Z,7.80
2018-12-04T13:07:45.988Z,7.10
2018-12-04T13:08:45.993Z,7.90
2018-12-04T13:09:46.000Z,8.90
2018-12-04T13:10:46.004Z,8.00
2018-12-04T13:11:46.009Z,8.50
2018-12-04T13:12:46.014Z,8.60
2018-12-04T13:13:46.018Z,6.90
2018-12-04T13:14:46.035Z,8.30
2018-12-04T13:15:46.025Z,8.70
2018-12-04T13:16:46.040Z,6.90